sensor_id;sensor_type;location;lat;lon;timestamp;pressure;altitude;pressure_sealevel;temperature;humidity
33625;BME280;19962;47.820;1.930;2023-05-25T00:00:26;101000.09;;;16.71;55.51
33625;BME280;19962;47.820;1.930;2023-05-25T00:02:53;100998.16;;;16.71;55.50
33625;BME280;19962;47.820;1.930;2023-05-25T00:05:20;100997.84;;;16.68;55.68
33625;BME280;19962;47.820;1.930;2023-05-25T00:07:46;100988.00;;;16.55;56.14
33625;BME280;19962;47.820;1.930;2023-05-25T00:10:12;100992.75;;;16.60;56.24
33625;BME280;19962;47.820;1.930;2023-05-25T00:12:38;100986.66;;;16.58;56.05
33625;BME280;19962;47.820;1.930;2023-05-25T00:15:05;100996.97;;;16.67;55.72
33625;BME280;19962;47.820;1.930;2023-05-25T00:17:32;100993.78;;;16.54;56.18
33625;BME280;19962;47.820;1.930;2023-05-25T00:19:59;100986.44;;;16.64;56.00
33625;BME280;19962;47.820;1.930;2023-05-25T00:22:38;100982.97;;;16.52;56.45
33625;BME280;19962;47.820;1.930;2023-05-25T00:25:05;100982.00;;;16.42;56.82
33625;BME280;19962;47.820;1.930;2023-05-25T00:27:32;100987.53;;;16.42;57.13
33625;BME280;19962;47.820;1.930;2023-05-25T00:29:58;100985.53;;;16.37;57.09
33625;BME280;19962;47.820;1.930;2023-05-25T00:32:24;100990.22;;;16.37;57.24
33625;BME280;19962;47.820;1.930;2023-05-25T00:34:50;100998.63;;;16.42;56.99
33625;BME280;19962;47.820;1.930;2023-05-25T00:37:16;100995.91;;;16.47;56.81
33625;BME280;19962;47.820;1.930;2023-05-25T00:39:42;100986.59;;;16.53;56.75
33625;BME280;19962;47.820;1.930;2023-05-25T00:42:08;100984.00;;;16.46;57.03
33625;BME280;19962;47.820;1.930;2023-05-25T00:44:35;100985.38;;;16.44;57.27
33625;BME280;19962;47.820;1.930;2023-05-25T00:47:01;100985.25;;;16.39;56.99
33625;BME280;19962;47.820;1.930;2023-05-25T00:49:31;100979.81;;;16.44;57.26
33625;BME280;19962;47.820;1.930;2023-05-25T00:51:58;100981.81;;;16.48;57.27
33625;BME280;19962;47.820;1.930;2023-05-25T00:54:24;100982.31;;;16.45;57.38
33625;BME280;19962;47.820;1.930;2023-05-25T00:56:56;100983.66;;;16.43;57.59
33625;BME280;19962;47.820;1.930;2023-05-25T00:59:47;100982.78;;;16.21;58.05
33625;BME280;19962;47.820;1.930;2023-05-25T01:02:14;100977.19;;;16.16;58.27
33625;BME280;19962;47.820;1.930;2023-05-25T01:04:48;100978.59;;;16.18;58.82
33625;BME280;19962;47.820;1.930;2023-05-25T01:07:20;100981.06;;;16.15;58.57
33625;BME280;19962;47.820;1.930;2023-05-25T01:09:49;100980.94;;;16.05;59.15
33625;BME280;19962;47.820;1.930;2023-05-25T01:12:18;100976.22;;;16.05;59.11
33625;BME280;19962;47.820;1.930;2023-05-25T01:14:45;100976.03;;;16.12;58.90
33625;BME280;19962;47.820;1.930;2023-05-25T01:17:14;100975.41;;;16.05;58.90
33625;BME280;19962;47.820;1.930;2023-05-25T01:19:40;100974.84;;;16.08;59.07
33625;BME280;19962;47.820;1.930;2023-05-25T01:22:12;100977.38;;;16.09;58.96
33625;BME280;19962;47.820;1.930;2023-05-25T01:24:45;100981.84;;;16.10;59.18
33625;BME280;19962;47.820;1.930;2023-05-25T01:27:39;100979.75;;;16.01;59.82
33625;BME280;19962;47.820;1.930;2023-05-25T01:30:09;100973.59;;;16.15;59.07
33625;BME280;19962;47.820;1.930;2023-05-25T01:32:37;100977.44;;;16.14;58.98
33625;BME280;19962;47.820;1.930;2023-05-25T01:35:04;100978.03;;;16.16;59.10
33625;BME280;19962;47.820;1.930;2023-05-25T01:37:31;100983.25;;;16.13;59.44
33625;BME280;19962;47.820;1.930;2023-05-25T01:39:57;100984.97;;;15.97;59.59
33625;BME280;19962;47.820;1.930;2023-05-25T01:42:24;100979.28;;;15.87;59.74
33625;BME280;19962;47.820;1.930;2023-05-25T01:44:50;100993.53;;;15.96;59.68
33625;BME280;19962;47.820;1.930;2023-05-25T01:53:29;100980.78;;;15.95;60.09
33625;BME280;19962;47.820;1.930;2023-05-25T01:55:42;100988.50;;;15.93;59.99
33625;BME280;19962;47.820;1.930;2023-05-25T01:58:12;100979.63;;;15.91;60.12
33625;BME280;19962;47.820;1.930;2023-05-25T02:00:40;100986.22;;;15.90;60.13
33625;BME280;19962;47.820;1.930;2023-05-25T02:03:06;100988.50;;;15.93;59.97
33625;BME280;19962;47.820;1.930;2023-05-25T02:05:34;100991.66;;;16.01;59.61
33625;BME280;19962;47.820;1.930;2023-05-25T02:08:01;100989.66;;;15.97;59.82
33625;BME280;19962;47.820;1.930;2023-05-25T02:10:27;100981.22;;;15.87;60.20
33625;BME280;19962;47.820;1.930;2023-05-25T02:12:53;100987.75;;;15.81;60.49
33625;BME280;19962;47.820;1.930;2023-05-25T02:15:19;100981.06;;;15.60;61.25
33625;BME280;19962;47.820;1.930;2023-05-25T02:17:46;100988.03;;;15.63;61.22
33625;BME280;19962;47.820;1.930;2023-05-25T02:20:13;100985.88;;;15.65;61.34
33625;BME280;19962;47.820;1.930;2023-05-25T02:22:39;100993.56;;;15.63;61.66
33625;BME280;19962;47.820;1.930;2023-05-25T02:25:06;100989.06;;;15.57;61.51
33625;BME280;19962;47.820;1.930;2023-05-25T02:27:34;100986.19;;;15.52;61.89
33625;BME280;19962;47.820;1.930;2023-05-25T02:30:00;100989.72;;;15.47;62.33
33625;BME280;19962;47.820;1.930;2023-05-25T02:32:26;100994.91;;;15.44;62.62
33625;BME280;19962;47.820;1.930;2023-05-25T02:34:54;100996.09;;;15.48;62.36
33625;BME280;19962;47.820;1.930;2023-05-25T02:37:20;100990.31;;;15.49;62.27
33625;BME280;19962;47.820;1.930;2023-05-25T02:39:46;100989.38;;;15.44;62.36
33625;BME280;19962;47.820;1.930;2023-05-25T02:42:12;100987.31;;;15.51;62.28
33625;BME280;19962;47.820;1.930;2023-05-25T02:44:39;100987.03;;;15.69;61.73
33625;BME280;19962;47.820;1.930;2023-05-25T02:47:05;100988.56;;;15.60;61.57
33625;BME280;19962;47.820;1.930;2023-05-25T02:49:32;100988.22;;;15.40;62.65
33625;BME280;19962;47.820;1.930;2023-05-25T02:51:59;100988.72;;;15.53;62.15
33625;BME280;19962;47.820;1.930;2023-05-25T02:54:25;100992.50;;;15.64;61.58
33625;BME280;19962;47.820;1.930;2023-05-25T02:56:51;100997.25;;;15.52;62.09
33625;BME280;19962;47.820;1.930;2023-05-25T02:59:17;100990.47;;;15.43;62.39
33625;BME280;19962;47.820;1.930;2023-05-25T03:01:43;100983.84;;;15.44;62.47
33625;BME280;19962;47.820;1.930;2023-05-25T03:04:10;100989.53;;;15.54;62.09
33625;BME280;19962;47.820;1.930;2023-05-25T03:06:36;100991.56;;;15.42;62.62
33625;BME280;19962;47.820;1.930;2023-05-25T03:09:02;100987.88;;;15.53;62.10
33625;BME280;19962;47.820;1.930;2023-05-25T03:11:30;100987.72;;;15.43;62.43
33625;BME280;19962;47.820;1.930;2023-05-25T03:13:57;100992.16;;;15.44;62.46
33625;BME280;19962;47.820;1.930;2023-05-25T03:16:23;100989.44;;;15.32;62.65
33625;BME280;19962;47.820;1.930;2023-05-25T03:18:50;100996.56;;;15.28;63.16
33625;BME280;19962;47.820;1.930;2023-05-25T03:21:16;100999.66;;;15.32;63.02
33625;BME280;19962;47.820;1.930;2023-05-25T03:23:42;101000.66;;;15.26;63.04
33625;BME280;19962;47.820;1.930;2023-05-25T03:26:08;101007.28;;;15.25;63.31
33625;BME280;19962;47.820;1.930;2023-05-25T03:28:35;101008.69;;;15.11;63.89
33625;BME280;19962;47.820;1.930;2023-05-25T03:31:01;101006.41;;;15.08;63.87
33625;BME280;19962;47.820;1.930;2023-05-25T03:33:27;101009.97;;;15.20;63.87
33625;BME280;19962;47.820;1.930;2023-05-25T03:35:53;101006.81;;;15.16;63.67
33625;BME280;19962;47.820;1.930;2023-05-25T03:38:19;101005.09;;;15.27;63.10
33625;BME280;19962;47.820;1.930;2023-05-25T03:40:45;101013.59;;;15.09;63.98
33625;BME280;19962;47.820;1.930;2023-05-25T03:43:11;101007.69;;;15.17;63.59
33625;BME280;19962;47.820;1.930;2023-05-25T03:45:37;101005.78;;;15.17;63.37
33625;BME280;19962;47.820;1.930;2023-05-25T03:48:04;101008.78;;;15.16;63.29
33625;BME280;19962;47.820;1.930;2023-05-25T03:50:30;101011.03;;;15.19;63.27
33625;BME280;19962;47.820;1.930;2023-05-25T03:52:56;101013.78;;;15.19;63.26
33625;BME280;19962;47.820;1.930;2023-05-25T03:55:22;101024.66;;;15.09;63.63
33625;BME280;19962;47.820;1.930;2023-05-25T03:57:48;101010.59;;;15.10;63.65
33625;BME280;19962;47.820;1.930;2023-05-25T04:00:15;101016.09;;;14.94;64.03
33625;BME280;19962;47.820;1.930;2023-05-25T04:02:41;101019.00;;;14.87;64.22
33625;BME280;19962;47.820;1.930;2023-05-25T04:05:08;101016.72;;;14.84;64.45
33625;BME280;19962;47.820;1.930;2023-05-25T04:07:34;101026.44;;;14.87;64.54
33625;BME280;19962;47.820;1.930;2023-05-25T04:10:02;101023.16;;;15.01;64.05
33625;BME280;19962;47.820;1.930;2023-05-25T04:12:28;101026.31;;;14.93;64.01
33625;BME280;19962;47.820;1.930;2023-05-25T04:14:55;101024.59;;;14.76;64.76
33625;BME280;19962;47.820;1.930;2023-05-25T04:17:21;101026.31;;;14.93;64.42
33625;BME280;19962;47.820;1.930;2023-05-25T04:19:50;101029.44;;;14.85;64.70
33625;BME280;19962;47.820;1.930;2023-05-25T04:22:16;101022.59;;;14.88;64.30
33625;BME280;19962;47.820;1.930;2023-05-25T04:24:43;101024.59;;;14.76;64.94
33625;BME280;19962;47.820;1.930;2023-05-25T04:27:09;101022.91;;;14.75;64.81
33625;BME280;19962;47.820;1.930;2023-05-25T04:29:36;101018.88;;;14.66;65.20
33625;BME280;19962;47.820;1.930;2023-05-25T04:32:03;101019.75;;;14.83;64.61
33625;BME280;19962;47.820;1.930;2023-05-25T04:34:29;101027.16;;;14.94;64.39
33625;BME280;19962;47.820;1.930;2023-05-25T04:36:58;101024.81;;;15.02;64.17
33625;BME280;19962;47.820;1.930;2023-05-25T04:39:30;101024.97;;;14.96;64.02
33625;BME280;19962;47.820;1.930;2023-05-25T04:41:56;101029.13;;;14.82;64.55
33625;BME280;19962;47.820;1.930;2023-05-25T04:44:23;101033.44;;;14.78;64.76
33625;BME280;19962;47.820;1.930;2023-05-25T04:46:50;101042.91;;;14.54;65.50
33625;BME280;19962;47.820;1.930;2023-05-25T04:49:17;101039.06;;;14.55;65.57
33625;BME280;19962;47.820;1.930;2023-05-25T04:51:43;101046.16;;;14.79;65.15
33625;BME280;19962;47.820;1.930;2023-05-25T04:54:10;101053.78;;;15.00;64.37
33625;BME280;19962;47.820;1.930;2023-05-25T04:56:36;101054.44;;;14.90;64.57
33625;BME280;19962;47.820;1.930;2023-05-25T04:59:02;101057.19;;;14.90;64.50
33625;BME280;19962;47.820;1.930;2023-05-25T05:01:30;101046.97;;;14.91;64.34
33625;BME280;19962;47.820;1.930;2023-05-25T05:03:59;101050.72;;;14.85;64.57
33625;BME280;19962;47.820;1.930;2023-05-25T05:06:25;101058.22;;;14.73;65.10
33625;BME280;19962;47.820;1.930;2023-05-25T05:08:51;101062.53;;;14.69;65.02
33625;BME280;19962;47.820;1.930;2023-05-25T05:11:17;101068.25;;;14.79;64.92
33625;BME280;19962;47.820;1.930;2023-05-25T05:13:43;101069.31;;;14.89;64.83
33625;BME280;19962;47.820;1.930;2023-05-25T05:16:09;101062.16;;;15.05;64.16
33625;BME280;19962;47.820;1.930;2023-05-25T05:18:35;101073.63;;;15.25;63.65
33625;BME280;19962;47.820;1.930;2023-05-25T05:21:02;101069.59;;;15.16;63.72
33625;BME280;19962;47.820;1.930;2023-05-25T05:23:28;101069.16;;;14.96;64.23
33625;BME280;19962;47.820;1.930;2023-05-25T05:25:54;101062.16;;;15.05;64.35
33625;BME280;19962;47.820;1.930;2023-05-25T05:28:20;101075.50;;;15.08;63.88
33625;BME280;19962;47.820;1.930;2023-05-25T05:30:46;101075.44;;;15.19;63.55
33625;BME280;19962;47.820;1.930;2023-05-25T05:33:12;101072.72;;;15.08;63.88
33625;BME280;19962;47.820;1.930;2023-05-25T05:35:39;101072.25;;;15.11;63.93
33625;BME280;19962;47.820;1.930;2023-05-25T05:38:05;101063.69;;;15.12;63.97
33625;BME280;19962;47.820;1.930;2023-05-25T05:40:32;101058.69;;;15.26;63.49
33625;BME280;19962;47.820;1.930;2023-05-25T05:42:58;101064.56;;;15.29;63.31
33625;BME280;19962;47.820;1.930;2023-05-25T05:45:24;101063.06;;;15.22;63.30
33625;BME280;19962;47.820;1.930;2023-05-25T05:47:50;101067.34;;;15.29;63.33
33625;BME280;19962;47.820;1.930;2023-05-25T05:50:16;101079.34;;;15.35;63.09
33625;BME280;19962;47.820;1.930;2023-05-25T05:52:42;101083.34;;;15.27;62.98
33625;BME280;19962;47.820;1.930;2023-05-25T05:55:09;101090.75;;;15.10;63.48
33625;BME280;19962;47.820;1.930;2023-05-25T05:57:35;101083.81;;;15.24;63.08
33625;BME280;19962;47.820;1.930;2023-05-25T06:00:01;101076.28;;;15.20;63.09
33625;BME280;19962;47.820;1.930;2023-05-25T06:02:30;101070.66;;;15.15;63.52
33625;BME280;19962;47.820;1.930;2023-05-25T06:04:56;101056.50;;;15.28;63.12
33625;BME280;19962;47.820;1.930;2023-05-25T06:07:22;101052.41;;;15.42;62.88
33625;BME280;19962;47.820;1.930;2023-05-25T06:09:48;101049.97;;;15.45;62.45
33625;BME280;19962;47.820;1.930;2023-05-25T06:12:14;101047.38;;;15.39;62.26
33625;BME280;19962;47.820;1.930;2023-05-25T06:14:40;101051.59;;;15.30;62.58
33625;BME280;19962;47.820;1.930;2023-05-25T06:17:06;101069.16;;;15.35;62.72
33625;BME280;19962;47.820;1.930;2023-05-25T06:19:32;101084.72;;;15.41;62.24
33625;BME280;19962;47.820;1.930;2023-05-25T06:21:58;101089.94;;;15.38;62.40
33625;BME280;19962;47.820;1.930;2023-05-25T06:24:24;101091.69;;;15.44;62.49
33625;BME280;19962;47.820;1.930;2023-05-25T06:26:50;101090.34;;;15.46;62.25
33625;BME280;19962;47.820;1.930;2023-05-25T06:29:16;101082.91;;;15.47;62.07
33625;BME280;19962;47.820;1.930;2023-05-25T06:31:42;101076.22;;;15.31;62.53
33625;BME280;19962;47.820;1.930;2023-05-25T06:34:09;101077.63;;;15.45;62.41
33625;BME280;19962;47.820;1.930;2023-05-25T06:36:35;101076.97;;;15.27;62.90
33625;BME280;19962;47.820;1.930;2023-05-25T06:39:02;101090.28;;;15.30;62.62
33625;BME280;19962;47.820;1.930;2023-05-25T06:41:28;101071.66;;;15.37;62.62
33625;BME280;19962;47.820;1.930;2023-05-25T06:43:54;101070.59;;;15.38;62.22
33625;BME280;19962;47.820;1.930;2023-05-25T06:46:20;101062.66;;;15.30;62.61
33625;BME280;19962;47.820;1.930;2023-05-25T06:48:46;101075.63;;;15.29;62.65
33625;BME280;19962;47.820;1.930;2023-05-25T06:51:13;101069.66;;;15.49;62.40
33625;BME280;19962;47.820;1.930;2023-05-25T06:53:39;101070.25;;;15.51;61.89
33625;BME280;19962;47.820;1.930;2023-05-25T06:56:05;101061.28;;;15.44;62.10
33625;BME280;19962;47.820;1.930;2023-05-25T06:58:32;101058.09;;;15.52;61.54
33625;BME280;19962;47.820;1.930;2023-05-25T07:00:58;101062.28;;;15.54;61.16
33625;BME280;19962;47.820;1.930;2023-05-25T07:03:25;101073.34;;;15.54;61.21
33625;BME280;19962;47.820;1.930;2023-05-25T07:05:52;101073.19;;;15.61;61.14
33625;BME280;19962;47.820;1.930;2023-05-25T07:08:18;101066.25;;;15.58;60.83
33625;BME280;19962;47.820;1.930;2023-05-25T07:10:44;101060.22;;;15.78;60.80
33625;BME280;19962;47.820;1.930;2023-05-25T07:13:10;101056.09;;;15.80;60.19
33625;BME280;19962;47.820;1.930;2023-05-25T07:15:36;101065.56;;;15.68;60.61
33625;BME280;19962;47.820;1.930;2023-05-25T07:18:02;101066.31;;;15.63;60.41
33625;BME280;19962;47.820;1.930;2023-05-25T07:20:29;101074.47;;;15.70;60.21
33625;BME280;19962;47.820;1.930;2023-05-25T07:22:55;101068.50;;;15.78;60.09
33625;BME280;19962;47.820;1.930;2023-05-25T07:25:21;101062.88;;;15.89;59.58
33625;BME280;19962;47.820;1.930;2023-05-25T07:27:48;101067.31;;;15.90;59.20
33625;BME280;19962;47.820;1.930;2023-05-25T07:30:15;101060.63;;;15.86;59.14
33625;BME280;19962;47.820;1.930;2023-05-25T07:32:41;101043.53;;;15.89;59.16
33625;BME280;19962;47.820;1.930;2023-05-25T07:35:07;101054.09;;;15.59;59.76
33625;BME280;19962;47.820;1.930;2023-05-25T07:37:33;101050.81;;;15.79;59.51
33625;BME280;19962;47.820;1.930;2023-05-25T07:40:00;101057.09;;;15.91;59.18
33625;BME280;19962;47.820;1.930;2023-05-25T07:42:26;101063.44;;;16.08;58.48
33625;BME280;19962;47.820;1.930;2023-05-25T07:45:01;101065.44;;;16.12;58.16
33625;BME280;19962;47.820;1.930;2023-05-25T07:47:28;101063.16;;;16.26;58.20
33625;BME280;19962;47.820;1.930;2023-05-25T07:49:54;101061.53;;;16.30;57.27
33625;BME280;19962;47.820;1.930;2023-05-25T07:52:20;101063.06;;;16.21;57.26
33625;BME280;19962;47.820;1.930;2023-05-25T07:54:46;101066.84;;;16.31;57.29
33625;BME280;19962;47.820;1.930;2023-05-25T07:57:12;101057.78;;;16.36;56.93
33625;BME280;19962;47.820;1.930;2023-05-25T07:59:38;101065.09;;;16.42;56.47
33625;BME280;19962;47.820;1.930;2023-05-25T08:02:05;101055.09;;;16.41;56.27
33625;BME280;19962;47.820;1.930;2023-05-25T08:04:31;101061.75;;;16.40;56.02
33625;BME280;19962;47.820;1.930;2023-05-25T08:06:58;101054.97;;;16.52;55.38
33625;BME280;19962;47.820;1.930;2023-05-25T08:09:24;101057.81;;;16.57;54.94
33625;BME280;19962;47.820;1.930;2023-05-25T08:11:50;101058.53;;;16.69;54.41
33625;BME280;19962;47.820;1.930;2023-05-25T08:14:16;101060.50;;;16.74;54.28
33625;BME280;19962;47.820;1.930;2023-05-25T08:16:43;101065.81;;;16.75;53.96
33625;BME280;19962;47.820;1.930;2023-05-25T08:19:09;101064.63;;;16.71;54.06
33625;BME280;19962;47.820;1.930;2023-05-25T08:21:35;101058.84;;;16.73;53.97
33625;BME280;19962;47.820;1.930;2023-05-25T08:24:02;101060.91;;;16.82;53.85
33625;BME280;19962;47.820;1.930;2023-05-25T08:26:33;101060.56;;;16.79;53.51
33625;BME280;19962;47.820;1.930;2023-05-25T08:29:02;101061.22;;;16.86;53.22
33625;BME280;19962;47.820;1.930;2023-05-25T08:31:30;101077.00;;;16.85;53.15
33625;BME280;19962;47.820;1.930;2023-05-25T08:33:56;101067.72;;;16.75;53.23
33625;BME280;19962;47.820;1.930;2023-05-25T08:36:23;101066.56;;;16.92;53.32
33625;BME280;19962;47.820;1.930;2023-05-25T08:38:49;101051.72;;;17.03;52.90
33625;BME280;19962;47.820;1.930;2023-05-25T08:41:15;101059.56;;;17.11;52.82
33625;BME280;19962;47.820;1.930;2023-05-25T08:43:41;101061.53;;;17.11;52.78
33625;BME280;19962;47.820;1.930;2023-05-25T08:46:08;101060.13;;;17.08;52.36
33625;BME280;19962;47.820;1.930;2023-05-25T08:48:35;101059.25;;;17.08;52.17
33625;BME280;19962;47.820;1.930;2023-05-25T08:51:08;101056.03;;;17.16;51.48
33625;BME280;19962;47.820;1.930;2023-05-25T08:53:36;101070.47;;;17.18;51.76
33625;BME280;19962;47.820;1.930;2023-05-25T08:56:13;101059.19;;;17.29;51.24
33625;BME280;19962;47.820;1.930;2023-05-25T08:58:48;101062.94;;;17.40;51.33
33625;BME280;19962;47.820;1.930;2023-05-25T09:01:19;101069.69;;;17.49;51.15
33625;BME280;19962;47.820;1.930;2023-05-25T09:03:46;101069.66;;;17.44;50.87
33625;BME280;19962;47.820;1.930;2023-05-25T09:06:16;101066.94;;;17.49;50.76
33625;BME280;19962;47.820;1.930;2023-05-25T09:08:43;101077.13;;;17.43;50.52
33625;BME280;19962;47.820;1.930;2023-05-25T09:11:11;101070.34;;;17.56;50.40
33625;BME280;19962;47.820;1.930;2023-05-25T09:13:37;101057.38;;;17.67;50.42
33625;BME280;19962;47.820;1.930;2023-05-25T09:16:04;101072.13;;;17.72;49.91
33625;BME280;19962;47.820;1.930;2023-05-25T09:18:31;101066.59;;;17.77;49.62
33625;BME280;19962;47.820;1.930;2023-05-25T09:20:57;101066.91;;;17.76;49.59
33625;BME280;19962;47.820;1.930;2023-05-25T09:23:23;101070.88;;;17.85;49.77
33625;BME280;19962;47.820;1.930;2023-05-25T09:25:50;101053.66;;;17.88;49.45
33625;BME280;19962;47.820;1.930;2023-05-25T09:28:20;101056.81;;;18.01;48.96
33625;BME280;19962;47.820;1.930;2023-05-25T09:30:46;101067.34;;;17.99;48.99
33625;BME280;19962;47.820;1.930;2023-05-25T09:33:14;101066.84;;;18.07;48.86
33625;BME280;19962;47.820;1.930;2023-05-25T09:35:46;101050.19;;;18.07;48.31
33625;BME280;19962;47.820;1.930;2023-05-25T09:38:15;101061.00;;;18.04;47.77
33625;BME280;19962;47.820;1.930;2023-05-25T09:40:41;101052.69;;;18.04;47.65
33625;BME280;19962;47.820;1.930;2023-05-25T09:43:07;101058.53;;;18.07;47.46
33625;BME280;19962;47.820;1.930;2023-05-25T09:45:34;101071.09;;;18.20;47.60
33625;BME280;19962;47.820;1.930;2023-05-25T09:48:05;101060.88;;;18.25;47.09
33625;BME280;19962;47.820;1.930;2023-05-25T09:50:32;101057.81;;;18.27;46.85
33625;BME280;19962;47.820;1.930;2023-05-25T09:52:59;101062.59;;;18.31;46.53
33625;BME280;19962;47.820;1.930;2023-05-25T09:55:28;101055.41;;;18.35;46.34
33625;BME280;19962;47.820;1.930;2023-05-25T09:57:55;101053.72;;;18.34;46.03
33625;BME280;19962;47.820;1.930;2023-05-25T10:00:23;101057.41;;;18.45;45.41
33625;BME280;19962;47.820;1.930;2023-05-25T10:02:50;101066.06;;;18.53;45.38
33625;BME280;19962;47.820;1.930;2023-05-25T10:05:16;101037.72;;;18.51;45.28
33625;BME280;19962;47.820;1.930;2023-05-25T10:07:45;101045.19;;;18.51;44.53
33625;BME280;19962;47.820;1.930;2023-05-25T10:10:13;101051.09;;;18.59;44.37
33625;BME280;19962;47.820;1.930;2023-05-25T10:12:43;101048.88;;;18.61;44.50
33625;BME280;19962;47.820;1.930;2023-05-25T10:15:13;101048.38;;;18.74;44.45
33625;BME280;19962;47.820;1.930;2023-05-25T10:17:53;101057.06;;;18.88;43.93
33625;BME280;19962;47.820;1.930;2023-05-25T10:20:24;101057.34;;;18.91;43.92
33625;BME280;19962;47.820;1.930;2023-05-25T10:23:23;101050.97;;;18.96;42.91
33625;BME280;19962;47.820;1.930;2023-05-25T10:25:52;101043.72;;;18.95;43.58
33625;BME280;19962;47.820;1.930;2023-05-25T10:28:29;101060.66;;;18.93;43.84
33625;BME280;19962;47.820;1.930;2023-05-25T10:30:59;101057.88;;;18.93;42.57
33625;BME280;19962;47.820;1.930;2023-05-25T10:33:26;101047.38;;;19.05;43.42
33625;BME280;19962;47.820;1.930;2023-05-25T10:35:54;101045.19;;;19.12;43.39
33625;BME280;19962;47.820;1.930;2023-05-25T10:38:21;101049.63;;;19.13;43.35
33625;BME280;19962;47.820;1.930;2023-05-25T10:40:48;101055.78;;;19.20;43.36
33625;BME280;19962;47.820;1.930;2023-05-25T10:43:19;101053.84;;;19.31;43.97
33625;BME280;19962;47.820;1.930;2023-05-25T10:45:47;101055.81;;;19.35;43.64
33625;BME280;19962;47.820;1.930;2023-05-25T10:48:16;101055.25;;;19.28;43.08
33625;BME280;19962;47.820;1.930;2023-05-25T10:50:49;101053.84;;;19.26;42.55
33625;BME280;19962;47.820;1.930;2023-05-25T10:53:18;101051.91;;;19.36;42.68
33625;BME280;19962;47.820;1.930;2023-05-25T10:58:19;101049.72;;;19.43;42.17
33625;BME280;19962;47.820;1.930;2023-05-25T11:03:50;101025.22;;;19.40;41.35
33625;BME280;19962;47.820;1.930;2023-05-25T11:07:08;101033.03;;;19.48;41.42
33625;BME280;19962;47.820;1.930;2023-05-25T11:09:29;101035.81;;;19.53;41.13
33625;BME280;19962;47.820;1.930;2023-05-25T11:12:02;101027.44;;;19.68;41.24
33625;BME280;19962;47.820;1.930;2023-05-25T11:14:35;101039.69;;;19.77;40.57
33625;BME280;19962;47.820;1.930;2023-05-25T11:17:19;101027.44;;;19.88;40.46
33625;BME280;19962;47.820;1.930;2023-05-25T11:19:53;101030.22;;;20.03;41.03
33625;BME280;19962;47.820;1.930;2023-05-25T11:22:31;101025.75;;;20.17;40.53
33625;BME280;19962;47.820;1.930;2023-05-25T11:24:59;101035.22;;;20.21;40.83
33625;BME280;19962;47.820;1.930;2023-05-25T11:27:29;101025.72;;;20.32;40.73
33625;BME280;19962;47.820;1.930;2023-05-25T11:29:57;101029.63;;;20.36;40.79
33625;BME280;19962;47.820;1.930;2023-05-25T11:32:25;101017.09;;;20.29;40.30
33625;BME280;19962;47.820;1.930;2023-05-25T11:34:52;101031.31;;;20.22;40.23
33625;BME280;19962;47.820;1.930;2023-05-25T11:37:20;101023.53;;;20.19;40.12
33625;BME280;19962;47.820;1.930;2023-05-25T11:39:47;101028.53;;;20.22;39.89
33625;BME280;19962;47.820;1.930;2023-05-25T11:42:14;101032.69;;;20.25;40.16
33625;BME280;19962;47.820;1.930;2023-05-25T11:44:42;101035.47;;;20.25;40.20
33625;BME280;19962;47.820;1.930;2023-05-25T11:47:09;101029.34;;;20.28;40.16
33625;BME280;19962;47.820;1.930;2023-05-25T11:49:42;101022.09;;;20.37;39.61
33625;BME280;19962;47.820;1.930;2023-05-25T11:52:11;101020.16;;;20.37;40.08
33625;BME280;19962;47.820;1.930;2023-05-25T11:54:37;101012.59;;;20.43;40.28
33625;BME280;19962;47.820;1.930;2023-05-25T11:59:39;101011.19;;;20.50;39.89
33625;BME280;19962;47.820;1.930;2023-05-25T12:02:06;101013.38;;;20.53;40.03
33625;BME280;19962;47.820;1.930;2023-05-25T12:04:33;101018.94;;;20.53;39.93
33625;BME280;19962;47.820;1.930;2023-05-25T12:07:04;101010.91;;;20.52;40.04
33625;BME280;19962;47.820;1.930;2023-05-25T12:09:31;101013.38;;;20.58;40.29
33625;BME280;19962;47.820;1.930;2023-05-25T12:11:57;101013.06;;;20.70;40.19
33625;BME280;19962;47.820;1.930;2023-05-25T12:14:24;101007.75;;;20.68;40.05
33625;BME280;19962;47.820;1.930;2023-05-25T12:16:51;101020.59;;;20.64;39.76
33625;BME280;19962;47.820;1.930;2023-05-25T12:19:17;101027.56;;;20.67;39.67
33625;BME280;19962;47.820;1.930;2023-05-25T12:21:44;101012.78;;;20.66;39.93
33625;BME280;19962;47.820;1.930;2023-05-25T12:24:11;101014.97;;;20.74;39.85
33625;BME280;19962;47.820;1.930;2023-05-25T12:26:51;101012.75;;;20.76;39.87
33625;BME280;19962;47.820;1.930;2023-05-25T12:29:22;101014.13;;;20.79;39.83
33625;BME280;19962;47.820;1.930;2023-05-25T12:31:49;101024.16;;;20.80;39.84
33625;BME280;19962;47.820;1.930;2023-05-25T12:34:17;101021.38;;;20.80;39.55
33625;BME280;19962;47.820;1.930;2023-05-25T12:36:51;101019.47;;;20.65;39.58
33625;BME280;19962;47.820;1.930;2023-05-25T12:39:38;101028.94;;;20.69;39.89
33625;BME280;19962;47.820;1.930;2023-05-25T12:42:04;101017.72;;;20.79;40.23
33625;BME280;19962;47.820;1.930;2023-05-25T12:44:37;101014.34;;;20.87;40.13
33625;BME280;19962;47.820;1.930;2023-05-25T12:47:13;101015.19;;;20.88;39.75
33625;BME280;19962;47.820;1.930;2023-05-25T12:49:45;101025.44;;;21.02;39.73
33625;BME280;19962;47.820;1.930;2023-05-25T12:52:39;101022.06;;;21.10;39.22
33625;BME280;19962;47.820;1.930;2023-05-25T12:55:31;101015.84;;;21.23;39.06
33625;BME280;19962;47.820;1.930;2023-05-25T12:58:05;101009.94;;;21.30;39.35
33625;BME280;19962;47.820;1.930;2023-05-25T13:00:37;101010.22;;;21.28;39.42
33625;BME280;19962;47.820;1.930;2023-05-25T13:03:06;101015.00;;;21.28;39.64
33625;BME280;19962;47.820;1.930;2023-05-25T13:05:34;101015.28;;;21.26;39.75
33625;BME280;19962;47.820;1.930;2023-05-25T13:08:02;101023.03;;;21.29;39.60